Time;durP1;ratioP1;P1;durP2;ratioP2;P2;SDS_P1;SDS_P2;PMS_P1;PMS_P2;Temp;Humidity;BMP_temperature;BMP_pressure;BME280_temperature;BME280_humidity;BME280_pressure;Samples;Min_cycle;Max_cycle;Signal;HPM_P1;HPM_P2
2021/12/28 00:01:35;;;;;;;24.53;11.80;;;-6.40;99.90;;;;;;5064196;28;20216;-66
2021/12/28 00:04:02;;;;;;;27.80;12.43;;;-6.40;99.90;;;;;;5064993;28;20212;-66
2021/12/28 00:06:30;;;;;;;25.50;9.77;;;-6.40;99.90;;;;;;5063251;28;20243;-66
2021/12/28 00:08:57;;;;;;;27.23;12.20;;;-6.40;99.90;;;;;;5063639;28;21283;-65
2021/12/28 00:11:24;;;;;;;28.40;11.97;;;-6.40;99.90;;;;;;5063238;28;20207;-66
2021/12/28 00:13:52;;;;;;;23.20;12.20;;;-6.40;99.90;;;;;;5061734;28;20208;-67
2021/12/28 00:16:32;;;;;;;21.53;10.17;;;-6.40;99.90;;;;;;5062953;28;20591;-67
2021/12/28 00:19:00;;;;;;;26.43;11.50;;;-6.40;99.90;;;;;;5060892;28;20248;-67
2021/12/28 00:21:27;;;;;;;24.10;11.10;;;-6.40;99.90;;;;;;5063014;28;20221;-66
2021/12/28 00:23:57;;;;;;;31.50;12.73;;;-6.40;99.90;;;;;;5064888;28;20205;-67
2021/12/28 00:26:24;;;;;;;28.53;11.20;;;-6.40;99.90;;;;;;5067912;28;20208;-67
2021/12/28 00:28:52;;;;;;;31.77;13.30;;;-6.50;99.90;;;;;;5065256;28;20243;-67
2021/12/28 00:31:19;;;;;;;25.00;11.10;;;-6.50;99.90;;;;;;5063284;28;20356;-67
2021/12/28 00:33:46;;;;;;;16.77;9.33;;;-6.50;99.90;;;;;;5061038;28;20609;-65
2021/12/28 00:36:14;;;;;;;21.30;10.30;;;-6.50;99.90;;;;;;5063800;28;20229;-66
2021/12/28 00:38:41;;;;;;;24.60;11.30;;;-6.50;99.90;;;;;;5063644;28;20220;-66
2021/12/28 00:41:09;;;;;;;29.20;12.17;;;-6.50;99.90;;;;;;5062459;28;20215;-66
2021/12/28 00:43:37;;;;;;;28.37;11.87;;;-6.50;99.90;;;;;;5063254;28;20215;-66
2021/12/28 00:46:06;;;;;;;26.03;12.00;;;-6.50;99.90;;;;;;5067517;28;20232;-66
2021/12/28 00:48:33;;;;;;;21.73;11.20;;;-6.50;99.90;;;;;;5061449;28;20221;-66
2021/12/28 00:51:00;;;;;;;25.57;11.93;;;-6.50;99.90;;;;;;5063356;28;20209;-66
2021/12/28 00:53:27;;;;;;;32.73;12.77;;;-6.60;99.90;;;;;;5066863;28;20443;-66
2021/12/28 00:55:54;;;;;;;22.80;9.77;;;-6.60;99.90;;;;;;5063439;28;20594;-66
2021/12/28 00:58:23;;;;;;;18.07;9.63;;;-6.60;99.90;;;;;;5062948;28;20205;-66
2021/12/28 01:00:51;;;;;;;21.93;10.37;;;-6.60;99.90;;;;;;5062033;28;20205;-66
2021/12/28 01:03:19;;;;;;;27.10;12.00;;;-6.60;99.90;;;;;;5060694;28;20267;-66
2021/12/28 01:05:47;;;;;;;23.27;10.90;;;-6.60;99.90;;;;;;5063720;28;20204;-66
2021/12/28 01:08:14;;;;;;;24.50;10.47;;;-6.70;99.90;;;;;;5063305;28;20287;-66
2021/12/28 01:10:44;;;;;;;31.80;12.80;;;-6.70;99.90;;;;;;5069683;28;20204;-65
2021/12/28 01:13:11;;;;;;;24.27;11.80;;;-6.70;99.90;;;;;;5069751;28;20213;-66
2021/12/28 01:15:40;;;;;;;26.63;11.80;;;-6.70;99.90;;;;;;5072082;28;20229;-65
2021/12/28 01:18:07;;;;;;;29.50;11.67;;;-6.70;99.90;;;;;;5072489;28;20205;-66
2021/12/28 01:20:34;;;;;;;23.37;11.43;;;-6.70;99.90;;;;;;5068946;28;20205;-66
2021/12/28 01:23:01;;;;;;;25.57;11.20;;;-6.70;99.90;;;;;;5071710;28;20205;-66
2021/12/28 01:25:28;;;;;;;30.83;14.00;;;-6.70;99.90;;;;;;5068002;28;20201;-66
2021/12/28 01:27:56;;;;;;;26.50;12.47;;;-6.70;99.90;;;;;;5062518;28;20239;-66
2021/12/28 01:30:25;;;;;;;26.63;12.03;;;-6.70;99.90;;;;;;5062506;28;20209;-67
2021/12/28 01:32:54;;;;;;;20.67;8.07;;;-6.70;99.90;;;;;;5062118;28;20213;-67
2021/12/28 01:35:22;;;;;;;25.43;10.97;;;-6.70;99.90;;;;;;5061095;28;20231;-66
2021/12/28 01:37:50;;;;;;;26.67;12.03;;;-6.70;99.90;;;;;;5062637;28;20578;-66
2021/12/28 01:40:21;;;;;;;24.77;11.23;;;-6.80;99.90;;;;;;5062577;28;20205;-66
2021/12/28 01:43:06;;;;;;;19.90;9.63;;;-6.80;99.90;;;;;;5063030;28;20201;-65
2021/12/28 01:45:40;;;;;;;24.33;11.63;;;-6.80;99.90;;;;;;5062156;28;20215;-66
2021/12/28 01:48:10;;;;;;;22.73;10.03;;;-6.80;99.90;;;;;;5061711;28;20296;-66
2021/12/28 01:50:38;;;;;;;26.17;11.50;;;-6.80;99.90;;;;;;5062415;28;20205;-66
2021/12/28 01:53:05;;;;;;;22.40;10.00;;;-6.70;99.90;;;;;;5062508;28;20657;-66
2021/12/28 01:55:33;;;;;;;26.30;12.50;;;-6.80;99.90;;;;;;5064499;28;20328;-65
2021/12/28 01:58:00;;;;;;;26.90;11.30;;;-6.80;99.90;;;;;;5062889;28;20726;-65
2021/12/28 02:00:27;;;;;;;21.40;11.70;;;-6.90;99.90;;;;;;5062146;28;20300;-65
2021/12/28 02:02:54;;;;;;;21.90;10.53;;;-6.90;99.90;;;;;;5061106;28;20209;-66
2021/12/28 02:05:22;;;;;;;26.47;12.57;;;-6.80;99.90;;;;;;5061337;28;20201;-65
2021/12/28 02:07:49;;;;;;;21.27;9.90;;;-6.80;99.90;;;;;;5061028;28;20213;-67
2021/12/28 02:10:17;;;;;;;23.67;10.77;;;-6.80;99.90;;;;;;5062383;28;20202;-65
2021/12/28 02:12:44;;;;;;;23.27;11.63;;;-6.90;99.90;;;;;;5061994;28;20206;-67
2021/12/28 02:15:13;;;;;;;27.17;9.93;;;-6.90;99.90;;;;;;5061272;28;20202;-66
2021/12/28 02:17:41;;;;;;;23.30;11.73;;;-6.80;99.90;;;;;;5061672;28;20520;-67
2021/12/28 02:20:12;;;;;;;27.17;12.03;;;-6.80;99.90;;;;;;5064843;28;20201;-66
2021/12/28 02:22:39;;;;;;;22.50;12.03;;;-6.80;99.90;;;;;;5065611;28;20213;-66
2021/12/28 02:25:07;;;;;;;22.67;11.73;;;-6.80;99.90;;;;;;5065897;28;20216;-66
2021/12/28 02:27:35;;;;;;;23.47;11.67;;;-6.80;99.90;;;;;;5066000;28;20235;-66
2021/12/28 02:30:03;;;;;;;24.27;10.80;;;-6.80;99.90;;;;;;5066066;28;20645;-65
2021/12/28 02:32:31;;;;;;;23.33;11.40;;;-6.80;99.90;;;;;;5064134;28;20661;-66
2021/12/28 02:34:58;;;;;;;27.47;13.20;;;-6.80;99.90;;;;;;5065335;28;20209;-66
2021/12/28 02:37:27;;;;;;;25.33;10.40;;;-6.80;99.90;;;;;;5064998;28;20274;-65
2021/12/28 02:39:54;;;;;;;19.87;9.47;;;-6.80;99.90;;;;;;5064734;28;20213;-66
2021/12/28 02:42:24;;;;;;;24.97;11.93;;;-6.80;99.90;;;;;;5063964;28;20216;-65
2021/12/28 02:45:07;;;;;;;22.07;11.40;;;-6.80;99.90;;;;;;5064582;28;20212;-66
2021/12/28 02:47:34;;;;;;;16.60;8.20;;;-6.80;99.90;;;;;;5060261;28;20213;-65
2021/12/28 02:50:01;;;;;;;21.07;10.67;;;-6.80;99.90;;;;;;5063401;28;20237;-65
2021/12/28 02:52:31;;;;;;;20.63;11.33;;;-6.80;99.90;;;;;;5063313;28;20205;-66
2021/12/28 02:54:58;;;;;;;27.63;12.53;;;-6.80;99.90;;;;;;5065871;28;20724;-65
2021/12/28 02:57:24;;;;;;;20.13;10.70;;;-6.80;99.90;;;;;;5065358;28;20233;-66
2021/12/28 02:59:51;;;;;;;27.10;12.47;;;-6.80;99.90;;;;;;5064428;28;20201;-65
2021/12/28 03:02:18;;;;;;;26.47;11.77;;;-6.90;99.90;;;;;;5064265;28;20201;-66
2021/12/28 03:04:45;;;;;;;27.47;12.17;;;-6.80;99.90;;;;;;5063579;28;20231;-66
2021/12/28 03:07:12;;;;;;;23.03;11.50;;;-6.90;99.90;;;;;;5063925;28;20197;-66
2021/12/28 03:09:41;;;;;;;26.97;11.57;;;-6.90;99.90;;;;;;5063521;28;20672;-65
2021/12/28 03:12:09;;;;;;;20.40;11.97;;;-6.90;99.90;;;;;;5064047;28;20209;-65
2021/12/28 03:14:36;;;;;;;28.13;12.93;;;-6.90;99.90;;;;;;5065065;28;20232;-66
2021/12/28 03:17:03;;;;;;;19.73;9.70;;;-6.90;99.90;;;;;;5063994;28;20221;-65
2021/12/28 03:19:30;;;;;;;25.77;12.57;;;-6.90;99.90;;;;;;5063543;28;20654;-66
2021/12/28 03:21:58;;;;;;;23.53;11.37;;;-6.90;99.90;;;;;;5063085;28;20638;-66
2021/12/28 03:24:25;;;;;;;20.57;10.00;;;-6.90;99.90;;;;;;5063424;28;20212;-67
2021/12/28 03:26:54;;;;;;;21.47;11.00;;;-6.90;99.90;;;;;;5067321;28;20201;-67
2021/12/28 03:29:21;;;;;;;22.10;11.13;;;-7.00;99.90;;;;;;5066149;28;20205;-67
2021/12/28 03:31:48;;;;;;;24.23;12.40;;;-7.00;99.90;;;;;;5064328;28;20573;-66
2021/12/28 03:34:15;;;;;;;25.03;13.10;;;-7.00;99.90;;;;;;5064277;28;20225;-66
2021/12/28 03:36:42;;;;;;;26.33;13.00;;;-7.00;99.90;;;;;;5062712;28;20228;-66
2021/12/28 03:39:09;;;;;;;27.70;12.90;;;-7.00;99.90;;;;;;5063631;28;20201;-66
2021/12/28 03:41:36;;;;;;;20.13;9.93;;;-7.00;99.90;;;;;;5061947;28;20237;-67
2021/12/28 03:44:06;;;;;;;24.20;10.70;;;-7.00;99.90;;;;;;5062440;28;20216;-66
2021/12/28 03:46:33;;;;;;;27.93;12.80;;;-7.00;99.90;;;;;;5063294;28;20215;-66
2021/12/28 03:49:00;;;;;;;27.40;12.67;;;-7.00;99.90;;;;;;5063136;28;20201;-66
2021/12/28 03:51:27;;;;;;;29.43;12.97;;;-7.00;99.90;;;;;;5063237;28;20209;-67
2021/12/28 03:53:54;;;;;;;27.57;12.43;;;-7.00;99.90;;;;;;5064324;28;20206;-66
2021/12/28 03:56:21;;;;;;;22.77;11.87;;;-7.00;99.90;;;;;;5065699;28;20244;-65
2021/12/28 03:58:49;;;;;;;26.87;12.57;;;-7.00;99.90;;;;;;5061865;28;20652;-66
2021/12/28 04:01:20;;;;;;;23.07;11.60;;;-6.90;99.90;;;;;;5063040;28;20662;-66
2021/12/28 04:03:47;;;;;;;19.60;10.87;;;-6.90;99.90;;;;;;5063600;28;20460;-65
2021/12/28 04:06:14;;;;;;;23.43;10.77;;;-6.90;99.90;;;;;;5061627;28;20685;-66
2021/12/28 04:08:42;;;;;;;25.70;12.73;;;-6.90;99.90;;;;;;5066558;28;20301;-67
2021/12/28 04:11:16;;;;;;;25.30;12.53;;;-6.90;99.90;;;;;;5064883;28;20209;-66
2021/12/28 04:13:44;;;;;;;23.83;11.27;;;-6.90;99.90;;;;;;5062888;28;20217;-66
2021/12/28 04:16:12;;;;;;;23.30;12.07;;;-6.90;99.90;;;;;;5061729;28;20678;-66
2021/12/28 04:18:41;;;;;;;27.70;13.10;;;-7.00;99.90;;;;;;5062482;28;20201;-66
2021/12/28 04:21:08;;;;;;;19.63;11.73;;;-7.00;99.90;;;;;;5064149;28;20852;-66
2021/12/28 04:23:35;;;;;;;25.97;12.30;;;-7.00;99.90;;;;;;5064110;28;20655;-66
2021/12/28 04:26:03;;;;;;;27.60;12.43;;;-7.00;99.90;;;;;;5064628;28;20210;-66
2021/12/28 04:28:30;;;;;;;29.57;12.47;;;-6.90;99.90;;;;;;5062900;28;20587;-65
2021/12/28 04:30:57;;;;;;;28.03;12.87;;;-7.00;99.90;;;;;;5064980;28;20212;-66
2021/12/28 04:33:24;;;;;;;28.90;13.20;;;-6.90;99.90;;;;;;5064453;28;20211;-66
2021/12/28 04:35:52;;;;;;;24.70;11.30;;;-6.90;99.90;;;;;;5063369;28;20209;-65
2021/12/28 04:38:19;;;;;;;26.87;11.23;;;-6.90;99.90;;;;;;5064791;28;20212;-66
2021/12/28 04:40:46;;;;;;;25.33;11.13;;;-6.90;99.90;;;;;;5064126;28;20875;-65
2021/12/28 04:43:15;;;;;;;27.93;13.13;;;-6.90;99.90;;;;;;5061754;28;20211;-65
2021/12/28 04:45:42;;;;;;;26.60;13.13;;;-6.90;99.90;;;;;;5064386;28;20576;-66
2021/12/28 04:48:09;;;;;;;28.03;13.30;;;-6.90;99.90;;;;;;5064443;28;20576;-66
2021/12/28 04:50:40;;;;;;;28.93;12.90;;;-7.00;99.90;;;;;;5063549;28;20205;-65
2021/12/28 04:53:11;;;;;;;22.63;11.67;;;-6.90;99.90;;;;;;5064524;28;20205;-65
2021/12/28 04:55:39;;;;;;;29.07;13.50;;;-6.90;99.90;;;;;;5066710;28;20214;-66
2021/12/28 04:58:07;;;;;;;26.17;13.13;;;-6.90;99.90;;;;;;5063946;28;20315;-66
2021/12/28 05:00:35;;;;;;;25.97;12.10;;;-6.90;99.90;;;;;;5060925;28;20219;-66
2021/12/28 05:03:02;;;;;;;25.67;11.90;;;-6.80;99.90;;;;;;5063214;28;20296;-66
2021/12/28 05:05:28;;;;;;;21.60;11.67;;;-6.80;99.90;;;;;;5063663;28;20701;-66
2021/12/28 05:07:55;;;;;;;24.53;12.27;;;-6.80;99.90;;;;;;5063659;28;20213;-66
2021/12/28 05:10:24;;;;;;;27.43;13.80;;;-6.80;99.90;;;;;;5063130;28;20206;-65
2021/12/28 05:12:51;;;;;;;33.47;13.67;;;-6.70;99.90;;;;;;5062798;28;20605;-66
2021/12/28 05:15:18;;;;;;;27.73;12.33;;;-6.70;99.90;;;;;;5063268;28;20291;-66
2021/12/28 05:17:45;;;;;;;27.87;11.63;;;-6.70;99.90;;;;;;5064183;28;20221;-66
2021/12/28 05:20:12;;;;;;;25.00;11.93;;;-6.80;99.90;;;;;;5063000;28;20209;-66
2021/12/28 05:22:39;;;;;;;26.37;13.17;;;-6.80;99.90;;;;;;5065555;28;20209;-66
2021/12/28 05:25:07;;;;;;;19.00;9.73;;;-6.80;99.90;;;;;;5064160;28;20206;-67
2021/12/28 05:27:36;;;;;;;27.83;12.77;;;-6.70;99.90;;;;;;5062429;28;20240;-66
2021/12/28 05:30:05;;;;;;;19.37;9.13;;;-6.70;99.90;;;;;;5063308;28;20224;-66
2021/12/28 05:32:31;;;;;;;25.37;12.63;;;-6.70;99.90;;;;;;5064607;28;20208;-66
2021/12/28 05:34:58;;;;;;;27.10;14.07;;;-6.70;99.90;;;;;;5065767;28;20213;-66
2021/12/28 05:37:25;;;;;;;26.73;12.67;;;-6.60;99.90;;;;;;5063403;28;20225;-65
2021/12/28 05:39:52;;;;;;;20.63;11.23;;;-6.70;99.90;;;;;;5064056;28;20212;-65
2021/12/28 05:42:19;;;;;;;20.93;11.20;;;-6.60;99.90;;;;;;5063750;28;20213;-65
2021/12/28 05:44:47;;;;;;;27.87;11.73;;;-6.60;99.90;;;;;;5062128;28;20217;-66
2021/12/28 05:47:14;;;;;;;29.97;13.17;;;-6.60;99.90;;;;;;5061265;28;20609;-66
2021/12/28 05:49:41;;;;;;;28.83;11.53;;;-6.50;99.90;;;;;;5062553;28;20212;-66
2021/12/28 05:52:08;;;;;;;27.23;13.07;;;-6.50;99.90;;;;;;5064900;28;20556;-66
2021/12/28 05:54:35;;;;;;;21.17;9.63;;;-6.40;99.90;;;;;;5067121;28;20217;-66
2021/12/28 05:57:02;;;;;;;25.67;13.63;;;-6.50;99.90;;;;;;5069430;28;20694;-66
2021/12/28 05:59:29;;;;;;;26.17;11.77;;;-6.50;99.90;;;;;;5066034;28;20687;-66
2021/12/28 06:01:57;;;;;;;28.07;13.13;;;-6.50;99.90;;;;;;5068149;28;20213;-66
2021/12/28 06:04:24;;;;;;;26.00;12.90;;;-6.40;99.90;;;;;;5067514;28;20201;-66
2021/12/28 06:06:51;;;;;;;16.47;9.37;;;-6.40;99.90;;;;;;5065981;28;20206;-64
2021/12/28 06:09:18;;;;;;;24.77;11.93;;;-6.40;99.90;;;;;;5067115;28;21462;-66
2021/12/28 06:11:45;;;;;;;25.50;11.70;;;-6.40;99.90;;;;;;5067769;28;20204;-66
2021/12/28 06:14:12;;;;;;;26.10;13.10;;;-6.40;99.90;;;;;;5066493;28;20205;-66
2021/12/28 06:16:39;;;;;;;29.00;13.60;;;-6.30;99.90;;;;;;5066780;28;20693;-65
2021/12/28 06:19:07;;;;;;;25.27;12.70;;;-6.30;99.90;;;;;;5066410;28;20220;-65
2021/12/28 06:21:35;;;;;;;25.37;12.50;;;-6.20;99.90;;;;;;5064062;28;20208;-66
2021/12/28 06:24:03;;;;;;;28.20;13.23;;;-6.20;99.90;;;;;;5064457;28;20209;-66
2021/12/28 06:26:31;;;;;;;18.53;9.37;;;-6.20;99.90;;;;;;5066384;28;20213;-66
2021/12/28 06:28:58;;;;;;;30.50;12.80;;;-6.20;99.90;;;;;;5067266;28;20241;-66
2021/12/28 06:31:28;;;;;;;23.50;12.43;;;-6.20;99.90;;;;;;5066614;28;20654;-67
2021/12/28 06:33:55;;;;;;;21.10;10.37;;;-6.10;99.90;;;;;;5064922;28;20214;-67
2021/12/28 06:36:23;;;;;;;18.40;9.57;;;-6.10;99.90;;;;;;5065035;28;20685;-67
2021/12/28 06:38:50;;;;;;;34.67;14.13;;;-6.10;99.90;;;;;;5067208;28;20204;-65
2021/12/28 06:41:17;;;;;;;28.63;13.17;;;-6.10;99.90;;;;;;5066415;28;20206;-67
2021/12/28 06:43:47;;;;;;;25.53;13.73;;;-6.10;99.90;;;;;;5066865;28;20224;-66
2021/12/28 06:46:13;;;;;;;26.30;12.07;;;-6.10;99.90;;;;;;5065207;28;20290;-66
2021/12/28 06:48:40;;;;;;;23.37;13.17;;;-6.10;99.90;;;;;;5064423;28;20279;-66
2021/12/28 06:51:07;;;;;;;30.33;12.80;;;-6.00;99.90;;;;;;5064968;28;20569;-65
2021/12/28 06:53:36;;;;;;;31.87;14.37;;;-6.10;99.90;;;;;;5065116;28;20223;-65
2021/12/28 06:56:05;;;;;;;25.27;13.83;;;-6.00;99.90;;;;;;5066286;28;21882;-66
2021/12/28 06:58:32;;;;;;;24.03;12.80;;;-6.10;99.90;;;;;;5065878;28;20639;-66
2021/12/28 07:00:59;;;;;;;27.03;12.47;;;-6.00;99.90;;;;;;5064309;28;20209;-67
2021/12/28 07:03:26;;;;;;;27.30;13.87;;;-6.00;99.90;;;;;;5063193;28;20224;-66
2021/12/28 07:05:53;;;;;;;23.90;12.83;;;-6.00;99.90;;;;;;5064252;28;20756;-66
2021/12/28 07:08:20;;;;;;;27.17;14.03;;;-5.90;99.90;;;;;;5065668;28;20211;-66
2021/12/28 07:10:48;;;;;;;25.77;13.30;;;-5.90;99.90;;;;;;5064741;28;20204;-66
2021/12/28 07:13:15;;;;;;;29.70;13.80;;;-5.80;99.90;;;;;;5063908;28;20214;-66
2021/12/28 07:15:42;;;;;;;29.67;14.23;;;-5.80;99.90;;;;;;5064614;28;20722;-66
2021/12/28 07:18:09;;;;;;;16.10;9.67;;;-5.80;99.90;;;;;;5066440;28;20227;-66
2021/12/28 07:20:36;;;;;;;25.93;12.87;;;-5.80;99.90;;;;;;5064156;28;20302;-64
2021/12/28 07:23:03;;;;;;;30.27;13.60;;;-5.70;99.90;;;;;;5066560;28;20300;-65
2021/12/28 07:25:31;;;;;;;29.33;13.23;;;-5.70;99.90;;;;;;5065854;28;20654;-67
2021/12/28 07:27:59;;;;;;;21.97;11.90;;;-5.60;99.90;;;;;;5064130;28;20244;-66
2021/12/28 07:30:26;;;;;;;27.37;12.37;;;-5.60;99.90;;;;;;5068385;28;20212;-65
2021/12/28 07:32:53;;;;;;;22.27;11.73;;;-5.60;99.90;;;;;;5062615;28;20209;-65
2021/12/28 07:35:20;;;;;;;24.33;12.97;;;-5.50;99.90;;;;;;5064460;28;20201;-67
2021/12/28 07:37:47;;;;;;;25.67;11.77;;;-5.50;99.90;;;;;;5065441;28;20225;-66
2021/12/28 07:40:14;;;;;;;25.13;12.43;;;-5.50;99.90;;;;;;5065089;28;20209;-67
2021/12/28 07:42:42;;;;;;;25.67;12.03;;;-5.40;99.90;;;;;;5064986;28;20209;-65
2021/12/28 07:45:12;;;;;;;24.83;12.23;;;-5.40;99.90;;;;;;5066870;28;20323;-65
2021/12/28 07:47:40;;;;;;;11.00;6.93;;;-5.40;99.90;;;;;;5065216;28;20194;-67
2021/12/28 07:50:09;;;;;;;25.27;12.93;;;-5.40;99.90;;;;;;5070214;28;20292;-67
2021/12/28 07:52:36;;;;;;;24.83;13.70;;;-5.40;99.90;;;;;;5066590;28;20205;-66
2021/12/28 07:55:05;;;;;;;17.10;9.57;;;-5.40;99.90;;;;;;5066966;28;20201;-66
2021/12/28 07:57:32;;;;;;;24.30;12.73;;;-5.30;99.90;;;;;;5059886;28;20228;-67
2021/12/28 07:59:59;;;;;;;29.43;13.07;;;-5.30;99.90;;;;;;5066830;28;20216;-67
2021/12/28 08:02:28;;;;;;;26.83;12.73;;;-5.30;99.90;;;;;;5068156;28;20325;-66
2021/12/28 08:04:55;;;;;;;26.17;12.87;;;-5.20;99.90;;;;;;5066826;28;20696;-66
2021/12/28 08:07:22;;;;;;;20.27;10.03;;;-5.20;99.90;;;;;;5064527;28;20698;-71
2021/12/28 08:09:49;;;;;;;27.00;13.53;;;-5.20;99.90;;;;;;5067499;28;20753;-71
2021/12/28 08:12:16;;;;;;;24.77;12.93;;;-5.20;99.90;;;;;;5066874;28;20236;-71
2021/12/28 08:14:43;;;;;;;27.23;13.23;;;-5.20;99.90;;;;;;5064794;28;20212;-70
2021/12/28 08:17:10;;;;;;;28.33;13.90;;;-5.10;99.90;;;;;;5065906;28;20682;-68
2021/12/28 08:19:39;;;;;;;26.07;14.20;;;-5.10;99.90;;;;;;5063728;28;20207;-70
2021/12/28 08:22:06;;;;;;;26.33;13.33;;;-5.10;99.90;;;;;;5064241;28;20212;-68
2021/12/28 08:24:34;;;;;;;26.60;14.10;;;-5.00;99.90;;;;;;5065377;28;20198;-69
2021/12/28 08:27:00;;;;;;;29.23;13.87;;;-5.00;99.90;;;;;;5067228;28;20258;-68
2021/12/28 08:29:28;;;;;;;22.33;11.83;;;-5.00;99.90;;;;;;5067251;28;20201;-66
2021/12/28 08:31:54;;;;;;;22.57;13.30;;;-5.00;99.90;;;;;;5065128;28;20207;-69
2021/12/28 08:34:21;;;;;;;28.77;14.40;;;-4.90;99.90;;;;;;5067368;28;20272;-67
2021/12/28 08:36:50;;;;;;;27.47;14.43;;;-4.90;99.90;;;;;;5066444;28;20216;-69
2021/12/28 08:39:17;;;;;;;23.03;12.13;;;-4.90;99.90;;;;;;5068280;28;20219;-68
2021/12/28 08:41:43;;;;;;;25.40;13.07;;;-4.90;99.90;;;;;;5067961;28;20205;-70
2021/12/28 08:44:10;;;;;;;23.80;13.70;;;-4.80;99.90;;;;;;5069252;28;20201;-69
2021/12/28 08:46:39;;;;;;;28.50;14.33;;;-4.80;99.90;;;;;;5067919;28;20678;-70
2021/12/28 08:49:06;;;;;;;26.23;13.83;;;-4.80;99.90;;;;;;5068077;28;20201;-71
2021/12/28 08:51:33;;;;;;;27.03;14.03;;;-4.80;99.90;;;;;;5066405;28;20225;-69
2021/12/28 08:54:01;;;;;;;20.03;11.37;;;-4.70;99.90;;;;;;5065956;28;20264;-66
2021/12/28 08:56:28;;;;;;;24.17;14.00;;;-4.70;99.90;;;;;;5064657;28;20239;-65
2021/12/28 08:58:55;;;;;;;22.50;13.73;;;-4.70;99.90;;;;;;5066470;28;20221;-66
2021/12/28 09:01:22;;;;;;;21.80;12.30;;;-4.70;99.90;;;;;;5065518;28;20197;-67
2021/12/28 09:03:49;;;;;;;21.33;12.63;;;-4.60;99.90;;;;;;5065387;28;20213;-68
2021/12/28 09:06:16;;;;;;;27.47;13.47;;;-4.60;99.90;;;;;;5063906;28;20209;-67
2021/12/28 09:08:43;;;;;;;24.33;13.63;;;-4.70;99.90;;;;;;5064695;28;20631;-66
2021/12/28 09:11:11;;;;;;;27.98;14.95;;;-4.70;99.90;;;;;;5063938;28;20465;-66
2021/12/28 09:13:38;;;;;;;32.97;20.17;;;-4.60;99.90;;;;;;5063776;28;20460;-68
2021/12/28 09:16:06;;;;;;;28.47;16.20;;;-4.60;99.90;;;;;;5062122;28;20292;-68
2021/12/28 09:18:33;;;;;;;29.98;16.13;;;-4.50;99.90;;;;;;5062259;28;20537;-67
2021/12/28 09:21:00;;;;;;;27.50;14.33;;;-4.50;99.90;;;;;;5061056;28;20206;-67
2021/12/28 09:23:27;;;;;;;21.97;10.17;;;-4.40;99.90;;;;;;5062749;28;20201;-67
2021/12/28 09:25:54;;;;;;;24.07;13.70;;;-4.40;99.90;;;;;;5064012;28;20209;-68
2021/12/28 09:28:23;;;;;;;24.93;12.60;;;-4.40;99.90;;;;;;5068777;28;20243;-68
2021/12/28 09:30:50;;;;;;;23.93;13.17;;;-4.40;99.90;;;;;;5070966;28;20278;-66
2021/12/28 09:33:18;;;;;;;27.03;13.97;;;-4.40;99.90;;;;;;5068355;28;20205;-68
2021/12/28 09:35:46;;;;;;;25.93;12.80;;;-4.30;99.90;;;;;;5066737;28;21611;-66
2021/12/28 09:38:13;;;;;;;31.77;14.83;;;-4.30;99.90;;;;;;5068959;28;20237;-67
2021/12/28 09:40:40;;;;;;;26.70;14.07;;;-4.20;99.90;;;;;;5068396;28;20293;-66
2021/12/28 09:43:09;;;;;;;30.23;14.87;;;-4.20;99.90;;;;;;5068091;28;20771;-66
2021/12/28 09:45:38;;;;;;;30.80;14.80;;;-4.20;99.90;;;;;;5071980;28;20201;-70
2021/12/28 09:48:05;;;;;;;28.50;14.53;;;-4.20;99.90;;;;;;5070820;28;20211;-70
2021/12/28 09:50:34;;;;;;;26.60;14.33;;;-4.10;99.90;;;;;;5068469;28;20205;-68
2021/12/28 09:53:02;;;;;;;28.83;14.30;;;-4.00;99.90;;;;;;5070668;28;20629;-68
2021/12/28 09:55:29;;;;;;;29.60;15.67;;;-4.00;99.90;;;;;;5072945;28;20212;-69
2021/12/28 09:57:58;;;;;;;27.43;14.57;;;-3.90;99.90;;;;;;5073898;28;20302;-71
2021/12/28 10:00:25;;;;;;;29.00;14.93;;;-3.80;99.90;;;;;;5067404;28;20206;-70
2021/12/28 10:02:55;;;;;;;25.30;14.47;;;-3.80;99.90;;;;;;5071131;28;20205;-71
2021/12/28 10:05:25;;;;;;;23.57;12.77;;;-3.70;99.90;;;;;;5052515;28;20213;-70
2021/12/28 10:07:56;;;;;;;28.53;13.73;;;-3.70;99.90;;;;;;5069681;28;20205;-69
2021/12/28 10:10:24;;;;;;;32.83;14.53;;;-3.60;99.90;;;;;;5075121;28;20208;-70
2021/12/28 10:12:53;;;;;;;30.97;15.53;;;-3.60;99.90;;;;;;5078917;28;20243;-69
2021/12/28 10:15:24;;;;;;;30.27;12.57;;;-3.60;99.90;;;;;;5076116;28;20201;-69
2021/12/28 10:17:59;;;;;;;25.27;13.50;;;-3.50;99.90;;;;;;5076761;28;20209;-71
2021/12/28 10:20:28;;;;;;;28.57;14.27;;;-3.50;99.90;;;;;;5076957;28;20280;-71
2021/12/28 10:22:58;;;;;;;25.60;13.43;;;-3.50;99.90;;;;;;5076172;28;20268;-70
2021/12/28 10:25:29;;;;;;;28.47;15.00;;;-3.50;99.90;;;;;;5070345;28;20714;-71
2021/12/28 10:27:58;;;;;;;26.17;14.47;;;-3.50;99.90;;;;;;5068497;28;20678;-70
2021/12/28 10:30:27;;;;;;;31.17;16.27;;;-3.40;99.90;;;;;;5068349;28;20504;-71
2021/12/28 10:32:57;;;;;;;27.20;14.33;;;-3.50;99.90;;;;;;5069632;28;20241;-70
2021/12/28 10:35:26;;;;;;;27.43;15.67;;;-3.40;99.90;;;;;;5069332;28;20205;-70
2021/12/28 10:37:55;;;;;;;25.47;13.37;;;-3.40;99.90;;;;;;5069816;28;20345;-71
2021/12/28 10:40:26;;;;;;;30.23;16.47;;;-3.30;99.90;;;;;;5068456;28;20268;-70
2021/12/28 10:42:57;;;;;;;30.57;14.13;;;-3.30;99.90;;;;;;5068940;28;20211;-72
2021/12/28 10:45:26;;;;;;;30.77;14.07;;;-3.20;99.90;;;;;;5068841;28;20224;-71
2021/12/28 10:47:56;;;;;;;27.93;15.17;;;-3.20;99.90;;;;;;5069376;28;20275;-72
2021/12/28 10:50:34;;;;;;;28.37;15.50;;;-3.30;99.90;;;;;;5070449;28;20295;-71
2021/12/28 10:53:24;;;;;;;26.00;14.47;;;-3.20;99.90;;;;;;5066602;28;20208;-70
2021/12/28 10:55:55;;;;;;;30.20;15.47;;;-3.20;99.90;;;;;;5073639;28;20220;-70
2021/12/28 10:58:31;;;;;;;28.40;15.80;;;-3.20;99.90;;;;;;5068271;28;20224;-71
2021/12/28 11:01:07;;;;;;;27.77;15.07;;;-3.10;99.90;;;;;;5068014;28;20266;-70
2021/12/28 11:03:37;;;;;;;29.50;15.20;;;-3.10;99.90;;;;;;5068619;28;20197;-70
2021/12/28 11:06:13;;;;;;;28.07;16.50;;;-3.10;99.90;;;;;;5069613;28;20292;-71
2021/12/28 11:08:41;;;;;;;32.33;16.83;;;-3.10;99.90;;;;;;5067813;28;20228;-70
2021/12/28 11:11:15;;;;;;;31.23;15.93;;;-3.00;99.90;;;;;;5066523;28;20206;-71
2021/12/28 11:13:42;;;;;;;28.50;15.67;;;-3.00;99.90;;;;;;5066963;28;20240;-70
2021/12/28 11:16:11;;;;;;;28.50;16.37;;;-3.00;99.90;;;;;;5066573;28;20295;-71
2021/12/28 11:18:42;;;;;;;24.27;11.60;;;-3.00;99.90;;;;;;5064445;28;20253;-71
2021/12/28 11:21:15;;;;;;;25.93;13.13;;;-3.00;99.90;;;;;;5059982;28;20212;-67
2021/12/28 11:23:44;;;;;;;29.57;13.53;;;-3.00;99.90;;;;;;5065620;28;20204;-69
2021/12/28 11:26:19;;;;;;;25.43;15.03;;;-2.90;99.90;;;;;;5064673;28;20216;-68
2021/12/28 11:29:02;;;;;;;25.00;14.20;;;-2.90;99.90;;;;;;5068853;28;20286;-67
2021/12/28 11:31:35;;;;;;;30.63;16.73;;;-2.90;99.90;;;;;;5066029;28;20209;-71
2021/12/28 11:34:11;;;;;;;33.33;17.70;;;-2.80;99.90;;;;;;5069194;28;20215;-71
2021/12/28 11:36:41;;;;;;;28.97;15.17;;;-2.80;99.90;;;;;;5066459;28;20328;-69
2021/12/28 11:39:12;;;;;;;30.33;16.53;;;-2.80;99.90;;;;;;5065511;28;20221;-70
2021/12/28 11:41:40;;;;;;;32.47;16.47;;;-2.70;99.90;;;;;;5066383;28;20205;-71
2021/12/28 11:44:07;;;;;;;35.13;18.00;;;-2.70;99.90;;;;;;5065637;28;20302;-71
2021/12/28 11:46:35;;;;;;;30.87;16.53;;;-2.70;99.90;;;;;;5066964;28;20225;-72
2021/12/28 11:49:05;;;;;;;33.47;18.13;;;-2.70;99.90;;;;;;5067205;28;20291;-73
2021/12/28 11:51:32;;;;;;;33.60;18.40;;;-2.60;99.90;;;;;;5064775;28;20197;-73
2021/12/28 11:54:04;;;;;;;34.37;18.93;;;-2.60;99.90;;;;;;5065980;28;20213;-72
2021/12/28 11:56:37;;;;;;;32.53;18.10;;;-2.60;99.90;;;;;;5065439;28;20229;-70
2021/12/28 11:59:07;;;;;;;35.40;20.00;;;-2.60;99.90;;;;;;5067026;28;20217;-71
2021/12/28 12:01:40;;;;;;;36.10;19.83;;;-2.60;99.90;;;;;;5068328;28;20208;-71
2021/12/28 12:04:46;;;;;;;31.73;18.97;;;-2.60;99.90;;;;;;5069944;28;20752;-70
2021/12/28 12:07:30;;;;;;;29.47;17.03;;;-2.50;99.90;;;;;;5068457;28;20209;-70
2021/12/28 12:10:35;;;;;;;27.47;15.50;;;-2.50;99.90;;;;;;5069001;28;20197;-71
2021/12/28 12:13:13;;;;;;;36.73;19.67;;;-2.50;99.90;;;;;;5067165;28;20240;-72
2021/12/28 12:15:43;;;;;;;25.70;15.70;;;-2.50;99.90;;;;;;5069411;28;20217;-71
2021/12/28 12:18:13;;;;;;;31.50;17.33;;;-2.50;99.90;;;;;;5066250;28;20281;-71
2021/12/28 12:20:48;;;;;;;31.10;18.70;;;-2.50;99.90;;;;;;5068286;28;20207;-72
2021/12/28 12:23:19;;;;;;;37.93;21.00;;;-2.50;99.90;;;;;;5068996;28;20200;-70
2021/12/28 12:25:51;;;;;;;34.97;19.73;;;-2.40;99.90;;;;;;5067441;28;20216;-71
2021/12/28 12:28:24;;;;;;;34.37;17.40;;;-2.50;99.90;;;;;;5066388;28;20300;-71
2021/12/28 12:30:54;;;;;;;31.43;18.17;;;-2.50;99.90;;;;;;5064728;28;20194;-71
2021/12/28 12:33:21;;;;;;;35.37;18.40;;;-2.40;99.90;;;;;;5065515;28;20201;-71
2021/12/28 12:35:55;;;;;;;31.50;18.67;;;-2.30;99.90;;;;;;5063127;28;20236;-71